sensor_id;sensor_type;location;lat;lon;timestamp;pressure;altitude;pressure_sealevel;temperature;humidity
56894;BME280;43392;50.078;13.704;2023-12-28T00:02:02;97043.59;;;4.14;82.79
56894;BME280;43392;50.078;13.704;2023-12-28T00:04:28;97035.06;;;4.12;82.63
56894;BME280;43392;50.078;13.704;2023-12-28T00:06:55;97037.59;;;4.07;82.76
56894;BME280;43392;50.078;13.704;2023-12-28T00:09:22;97035.97;;;4.06;82.63
56894;BME280;43392;50.078;13.704;2023-12-28T00:11:48;97040.16;;;4.01;82.74
56894;BME280;43392;50.078;13.704;2023-12-28T00:14:15;97032.41;;;4.00;82.79
56894;BME280;43392;50.078;13.704;2023-12-28T00:16:41;97020.41;;;3.97;82.92
56894;BME280;43392;50.078;13.704;2023-12-28T00:19:09;97020.88;;;3.94;82.92
56894;BME280;43392;50.078;13.704;2023-12-28T00:21:36;96998.28;;;3.92;83.11
56894;BME280;43392;50.078;13.704;2023-12-28T00:24:03;96996.91;;;3.89;83.30
56894;BME280;43392;50.078;13.704;2023-12-28T00:26:29;96995.06;;;3.90;83.23
56894;BME280;43392;50.078;13.704;2023-12-28T00:28:56;97001.16;;;3.90;83.30
56894;BME280;43392;50.078;13.704;2023-12-28T00:31:22;97003.81;;;3.90;83.20
56894;BME280;43392;50.078;13.704;2023-12-28T00:33:49;97008.91;;;3.92;83.30
56894;BME280;43392;50.078;13.704;2023-12-28T00:36:17;97003.03;;;3.90;83.21
56894;BME280;43392;50.078;13.704;2023-12-28T00:38:44;97003.22;;;3.88;83.36
56894;BME280;43392;50.078;13.704;2023-12-28T00:41:11;96998.16;;;3.87;83.39
56894;BME280;43392;50.078;13.704;2023-12-28T00:43:37;96993.06;;;3.85;83.22
56894;BME280;43392;50.078;13.704;2023-12-28T00:46:04;96983.53;;;3.84;83.33
56894;BME280;43392;50.078;13.704;2023-12-28T00:48:30;96993.06;;;3.85;83.31
56894;BME280;43392;50.078;13.704;2023-12-28T00:50:57;96987.19;;;3.83;83.39
56894;BME280;43392;50.078;13.704;2023-12-28T00:53:26;96994.34;;;3.83;83.30
56894;BME280;43392;50.078;13.704;2023-12-28T00:55:53;96989.84;;;3.83;83.47
56894;BME280;43392;50.078;13.704;2023-12-28T00:58:20;96999.66;;;3.83;83.11
56894;BME280;43392;50.078;13.704;2023-12-28T01:00:46;97005.78;;;3.83;83.48
56894;BME280;43392;50.078;13.704;2023-12-28T01:03:13;97005.31;;;3.86;83.39
56894;BME280;43392;50.078;13.704;2023-12-28T01:05:40;97013.38;;;3.91;83.31
56894;BME280;43392;50.078;13.704;2023-12-28T01:08:06;97016.59;;;3.93;83.20
56894;BME280;43392;50.078;13.704;2023-12-28T01:10:34;97027.34;;;3.98;82.99
56894;BME280;43392;50.078;13.704;2023-12-28T01:13:01;97022.38;;;4.02;82.80
56894;BME280;43392;50.078;13.704;2023-12-28T01:15:28;97016.38;;;4.07;83.02
56894;BME280;43392;50.078;13.704;2023-12-28T01:17:54;97007.38;;;4.08;82.98
56894;BME280;43392;50.078;13.704;2023-12-28T01:20:21;97016.25;;;4.13;82.53
56894;BME280;43392;50.078;13.704;2023-12-28T01:22:47;97012.06;;;4.17;82.24
56894;BME280;43392;50.078;13.704;2023-12-28T01:25:15;97006.88;;;4.22;82.15
56894;BME280;43392;50.078;13.704;2023-12-28T01:27:43;97004.09;;;4.29;81.99
56894;BME280;43392;50.078;13.704;2023-12-28T01:30:10;97024.03;;;4.31;81.85
56894;BME280;43392;50.078;13.704;2023-12-28T01:32:37;97032.81;;;4.32;81.62
56894;BME280;43392;50.078;13.704;2023-12-28T01:35:04;97030.28;;;4.37;81.41
56894;BME280;43392;50.078;13.704;2023-12-28T01:37:30;97015.47;;;4.41;81.05
56894;BME280;43392;50.078;13.704;2023-12-28T01:39:58;97004.41;;;4.44;80.97
56894;BME280;43392;50.078;13.704;2023-12-28T01:42:25;97004.75;;;4.47;80.91
56894;BME280;43392;50.078;13.704;2023-12-28T01:44:53;97015.31;;;4.59;80.43
56894;BME280;43392;50.078;13.704;2023-12-28T01:47:20;97016.09;;;4.71;80.05
56894;BME280;43392;50.078;13.704;2023-12-28T01:49:46;97010.06;;;4.76;79.70
56894;BME280;43392;50.078;13.704;2023-12-28T01:52:13;97008.22;;;4.76;79.44
56894;BME280;43392;50.078;13.704;2023-12-28T01:54:40;97009.03;;;4.77;79.28
56894;BME280;43392;50.078;13.704;2023-12-28T01:57:07;97005.09;;;4.79;79.13
56894;BME280;43392;50.078;13.704;2023-12-28T01:59:34;97007.19;;;4.77;79.05
56894;BME280;43392;50.078;13.704;2023-12-28T02:02:03;96993.00;;;4.72;79.03
56894;BME280;43392;50.078;13.704;2023-12-28T02:04:30;96999.13;;;4.72;79.33
56894;BME280;43392;50.078;13.704;2023-12-28T02:06:57;97000.97;;;4.72;78.99
56894;BME280;43392;50.078;13.704;2023-12-28T02:09:23;97000.72;;;4.73;78.68
56894;BME280;43392;50.078;13.704;2023-12-28T02:11:50;96990.09;;;4.73;78.81
56894;BME280;43392;50.078;13.704;2023-12-28T02:14:17;96981.56;;;4.71;79.03
56894;BME280;43392;50.078;13.704;2023-12-28T02:16:46;96969.56;;;4.68;79.12
56894;BME280;43392;50.078;13.704;2023-12-28T02:19:25;96961.28;;;4.65;78.82
56894;BME280;43392;50.078;13.704;2023-12-28T02:21:59;96931.88;;;4.55;79.02
56894;BME280;43392;50.078;13.704;2023-12-28T02:24:25;96932.28;;;4.63;79.06
56894;BME280;43392;50.078;13.704;2023-12-28T02:26:53;96903.78;;;4.59;79.15
56894;BME280;43392;50.078;13.704;2023-12-28T02:29:20;96904.91;;;4.63;79.10
56894;BME280;43392;50.078;13.704;2023-12-28T02:31:52;96912.66;;;4.64;79.18
56894;BME280;43392;50.078;13.704;2023-12-28T02:34:27;96912.41;;;4.66;78.92
56894;BME280;43392;50.078;13.704;2023-12-28T02:36:56;96912.16;;;4.67;79.01
56894;BME280;43392;50.078;13.704;2023-12-28T02:39:24;96936.66;;;4.69;78.96
56894;BME280;43392;50.078;13.704;2023-12-28T02:41:54;96941.16;;;4.69;79.31
56894;BME280;43392;50.078;13.704;2023-12-28T02:44:21;96946.22;;;4.70;78.75
56894;BME280;43392;50.078;13.704;2023-12-28T02:46:48;96935.84;;;4.69;78.92
56894;BME280;43392;50.078;13.704;2023-12-28T02:49:14;96943.09;;;4.74;78.66
56894;BME280;43392;50.078;13.704;2023-12-28T02:51:41;96947.94;;;4.77;78.45
56894;BME280;43392;50.078;13.704;2023-12-28T02:54:08;96941.91;;;4.81;78.12
56894;BME280;43392;50.078;13.704;2023-12-28T02:56:35;96925.97;;;4.81;78.11
56894;BME280;43392;50.078;13.704;2023-12-28T02:59:03;96939.56;;;4.85;77.92
56894;BME280;43392;50.078;13.704;2023-12-28T03:01:30;96917.53;;;4.84;77.85
56894;BME280;43392;50.078;13.704;2023-12-28T03:03:56;96917.03;;;4.87;77.72
56894;BME280;43392;50.078;13.704;2023-12-28T03:06:23;96908.50;;;4.85;77.65
56894;BME280;43392;50.078;13.704;2023-12-28T03:08:49;96895.00;;;4.87;77.48
56894;BME280;43392;50.078;13.704;2023-12-28T03:11:16;96903.75;;;4.87;77.61
56894;BME280;43392;50.078;13.704;2023-12-28T03:13:43;96910.69;;;4.88;77.29
56894;BME280;43392;50.078;13.704;2023-12-28T03:16:11;96917.84;;;4.88;77.20
56894;BME280;43392;50.078;13.704;2023-12-28T03:18:39;96918.81;;;4.82;77.25
56894;BME280;43392;50.078;13.704;2023-12-28T03:21:06;96909.13;;;4.76;77.31
56894;BME280;43392;50.078;13.704;2023-12-28T03:23:32;96909.38;;;4.74;77.32
56894;BME280;43392;50.078;13.704;2023-12-28T03:26:00;96903.50;;;4.72;77.31
56894;BME280;43392;50.078;13.704;2023-12-28T03:28:27;96908.00;;;4.72;77.16
56894;BME280;43392;50.078;13.704;2023-12-28T03:30:53;96898.66;;;4.69;77.30
56894;BME280;43392;50.078;13.704;2023-12-28T03:33:21;96902.91;;;4.70;77.17
56894;BME280;43392;50.078;13.704;2023-12-28T03:35:48;96906.38;;;4.70;77.29
56894;BME280;43392;50.078;13.704;2023-12-28T03:38:16;96902.69;;;4.72;76.98
56894;BME280;43392;50.078;13.704;2023-12-28T03:40:42;96911.47;;;4.72;77.07
56894;BME280;43392;50.078;13.704;2023-12-28T03:43:12;96910.66;;;4.72;77.06
56894;BME280;43392;50.078;13.704;2023-12-28T03:45:39;96913.31;;;4.72;76.73
56894;BME280;43392;50.078;13.704;2023-12-28T03:48:06;96901.88;;;4.71;76.74
56894;BME280;43392;50.078;13.704;2023-12-28T03:50:34;96897.84;;;4.68;76.71
56894;BME280;43392;50.078;13.704;2023-12-28T03:53:00;96892.94;;;4.60;76.84
56894;BME280;43392;50.078;13.704;2023-12-28T03:55:27;96883.13;;;4.61;77.00
56894;BME280;43392;50.078;13.704;2023-12-28T03:57:54;96886.25;;;4.58;76.77
56894;BME280;43392;50.078;13.704;2023-12-28T04:00:21;96885.22;;;4.59;76.78
56894;BME280;43392;50.078;13.704;2023-12-28T04:02:48;96893.97;;;4.59;76.46
56894;BME280;43392;50.078;13.704;2023-12-28T04:05:15;96887.38;;;4.62;76.48
56894;BME280;43392;50.078;13.704;2023-12-28T04:07:43;96897.53;;;4.65;76.05
56894;BME280;43392;50.078;13.704;2023-12-28T04:10:10;96894.28;;;4.63;76.14
56894;BME280;43392;50.078;13.704;2023-12-28T04:12:36;96903.63;;;4.65;75.88
56894;BME280;43392;50.078;13.704;2023-12-28T04:15:04;96891.63;;;4.63;76.04
56894;BME280;43392;50.078;13.704;2023-12-28T04:17:31;96900.31;;;4.58;75.76
56894;BME280;43392;50.078;13.704;2023-12-28T04:19:57;96914.66;;;4.57;75.96
56894;BME280;43392;50.078;13.704;2023-12-28T04:22:24;96905.06;;;4.56;75.98
56894;BME280;43392;50.078;13.704;2023-12-28T04:24:52;96916.97;;;4.54;76.03
56894;BME280;43392;50.078;13.704;2023-12-28T04:27:18;96917.44;;;4.51;76.02
56894;BME280;43392;50.078;13.704;2023-12-28T04:29:45;96926.13;;;4.46;75.82
56894;BME280;43392;50.078;13.704;2023-12-28T04:32:12;96936.28;;;4.49;75.97
56894;BME280;43392;50.078;13.704;2023-12-28T04:34:38;96934.44;;;4.50;75.75
56894;BME280;43392;50.078;13.704;2023-12-28T04:37:05;96940.41;;;4.57;75.41
56894;BME280;43392;50.078;13.704;2023-12-28T04:39:32;96948.13;;;4.58;75.30
56894;BME280;43392;50.078;13.704;2023-12-28T04:42:00;96942.59;;;4.60;74.89
56894;BME280;43392;50.078;13.704;2023-12-28T04:44:26;96963.94;;;4.65;75.04
56894;BME280;43392;50.078;13.704;2023-12-28T04:46:53;96958.63;;;4.65;74.73
56894;BME280;43392;50.078;13.704;2023-12-28T04:49:20;96960.38;;;4.59;74.62
56894;BME280;43392;50.078;13.704;2023-12-28T04:51:47;96964.16;;;4.63;74.63
56894;BME280;43392;50.078;13.704;2023-12-28T04:54:13;96969.25;;;4.65;74.68
56894;BME280;43392;50.078;13.704;2023-12-28T04:56:40;96958.38;;;4.66;74.53
56894;BME280;43392;50.078;13.704;2023-12-28T04:59:08;96961.84;;;4.67;74.23
56894;BME280;43392;50.078;13.704;2023-12-28T05:01:40;96963.44;;;4.68;74.10
56894;BME280;43392;50.078;13.704;2023-12-28T05:04:07;96947.28;;;4.69;74.06
56894;BME280;43392;50.078;13.704;2023-12-28T05:06:33;96949.94;;;4.69;74.18
56894;BME280;43392;50.078;13.704;2023-12-28T05:09:00;96949.94;;;4.69;74.07
56894;BME280;43392;50.078;13.704;2023-12-28T05:11:27;96943.56;;;4.70;74.07
56894;BME280;43392;50.078;13.704;2023-12-28T05:13:53;96944.38;;;4.71;73.90
56894;BME280;43392;50.078;13.704;2023-12-28T05:16:21;96951.53;;;4.70;73.89
56894;BME280;43392;50.078;13.704;2023-12-28T05:18:48;96925.22;;;4.69;74.07
56894;BME280;43392;50.078;13.704;2023-12-28T05:21:15;96927.31;;;4.67;73.98
56894;BME280;43392;50.078;13.704;2023-12-28T05:23:41;96928.59;;;4.64;73.96
56894;BME280;43392;50.078;13.704;2023-12-28T05:26:08;96930.91;;;4.61;74.12
56894;BME280;43392;50.078;13.704;2023-12-28T05:28:35;96934.53;;;4.55;74.07
56894;BME280;43392;50.078;13.704;2023-12-28T05:31:01;96920.69;;;4.53;74.38
56894;BME280;43392;50.078;13.704;2023-12-28T05:33:29;96935.47;;;4.49;74.31
56894;BME280;43392;50.078;13.704;2023-12-28T05:35:56;96929.84;;;4.45;74.30
56894;BME280;43392;50.078;13.704;2023-12-28T05:38:22;96934.81;;;4.42;74.43
56894;BME280;43392;50.078;13.704;2023-12-28T05:40:49;96926.28;;;4.40;74.55
56894;BME280;43392;50.078;13.704;2023-12-28T05:43:16;96930.31;;;4.42;74.65
56894;BME280;43392;50.078;13.704;2023-12-28T05:45:42;96920.50;;;4.43;74.40
56894;BME280;43392;50.078;13.704;2023-12-28T05:48:09;96927.66;;;4.42;74.79
56894;BME280;43392;50.078;13.704;2023-12-28T05:50:37;96954.78;;;4.44;74.33
56894;BME280;43392;50.078;13.704;2023-12-28T05:53:05;96954.78;;;4.44;74.40
56894;BME280;43392;50.078;13.704;2023-12-28T05:55:31;96961.34;;;4.42;74.34
56894;BME280;43392;50.078;13.704;2023-12-28T05:57:58;96977.63;;;4.45;74.43
56894;BME280;43392;50.078;13.704;2023-12-28T06:00:25;96976.81;;;4.45;74.22
56894;BME280;43392;50.078;13.704;2023-12-28T06:02:51;96981.06;;;4.46;73.90
56894;BME280;43392;50.078;13.704;2023-12-28T06:05:18;96976.81;;;4.45;74.11
56894;BME280;43392;50.078;13.704;2023-12-28T06:07:46;96976.25;;;4.43;74.19
56894;BME280;43392;50.078;13.704;2023-12-28T06:10:13;96976.00;;;4.44;74.25
56894;BME280;43392;50.078;13.704;2023-12-28T06:12:39;96969.41;;;4.47;73.97
56894;BME280;43392;50.078;13.704;2023-12-28T06:15:07;96988.56;;;4.49;73.72
56894;BME280;43392;50.078;13.704;2023-12-28T06:17:33;96977.13;;;4.48;73.70
56894;BME280;43392;50.078;13.704;2023-12-28T06:20:00;96984.88;;;4.50;73.68
56894;BME280;43392;50.078;13.704;2023-12-28T06:22:27;96985.44;;;4.52;73.53
56894;BME280;43392;50.078;13.704;2023-12-28T06:24:55;96983.94;;;4.56;73.51
56894;BME280;43392;50.078;13.704;2023-12-28T06:27:22;96975.75;;;4.57;73.70
56894;BME280;43392;50.078;13.704;2023-12-28T06:29:49;96993.06;;;4.60;73.51
56894;BME280;43392;50.078;13.704;2023-12-28T06:32:16;96978.72;;;4.61;73.26
56894;BME280;43392;50.078;13.704;2023-12-28T06:34:43;96978.25;;;4.64;73.13
56894;BME280;43392;50.078;13.704;2023-12-28T06:37:09;96982.03;;;4.68;72.81
56894;BME280;43392;50.078;13.704;2023-12-28T06:39:36;96976.81;;;4.73;72.65
56894;BME280;43392;50.078;13.704;2023-12-28T06:42:05;96970.78;;;4.78;72.44
56894;BME280;43392;50.078;13.704;2023-12-28T06:44:31;96961.53;;;4.80;72.31
56894;BME280;43392;50.078;13.704;2023-12-28T06:46:58;96982.88;;;4.85;72.16
56894;BME280;43392;50.078;13.704;2023-12-28T06:49:25;96987.72;;;4.88;72.13
56894;BME280;43392;50.078;13.704;2023-12-28T06:51:52;96981.94;;;4.91;71.97
56894;BME280;43392;50.078;13.704;2023-12-28T06:54:18;97004.56;;;4.94;71.82
56894;BME280;43392;50.078;13.704;2023-12-28T06:56:45;96988.94;;;4.97;71.37
56894;BME280;43392;50.078;13.704;2023-12-28T06:59:13;96977.84;;;5.00;71.27
56894;BME280;43392;50.078;13.704;2023-12-28T07:01:41;96991.94;;;5.01;71.12
56894;BME280;43392;50.078;13.704;2023-12-28T07:04:09;96988.00;;;5.03;71.15
56894;BME280;43392;50.078;13.704;2023-12-28T07:06:36;96996.28;;;5.07;70.82
56894;BME280;43392;50.078;13.704;2023-12-28T07:09:03;97001.13;;;5.10;70.75
56894;BME280;43392;50.078;13.704;2023-12-28T07:11:30;97007.81;;;5.12;70.64
56894;BME280;43392;50.078;13.704;2023-12-28T07:13:56;97016.91;;;5.16;70.34
56894;BME280;43392;50.078;13.704;2023-12-28T07:16:24;97024.69;;;5.18;70.05
56894;BME280;43392;50.078;13.704;2023-12-28T07:18:51;97036.19;;;5.23;70.05
56894;BME280;43392;50.078;13.704;2023-12-28T07:21:18;97037.56;;;5.26;69.99
56894;BME280;43392;50.078;13.704;2023-12-28T07:23:45;97034.16;;;5.30;69.70
56894;BME280;43392;50.078;13.704;2023-12-28T07:26:14;97038.00;;;5.34;69.57
56894;BME280;43392;50.078;13.704;2023-12-28T07:28:41;97034.59;;;5.39;69.28
56894;BME280;43392;50.078;13.704;2023-12-28T07:31:10;97054.59;;;5.42;69.05
56894;BME280;43392;50.078;13.704;2023-12-28T07:33:38;97075.63;;;5.43;68.94
56894;BME280;43392;50.078;13.704;2023-12-28T07:36:05;97086.03;;;5.45;68.87
56894;BME280;43392;50.078;13.704;2023-12-28T07:38:32;97087.63;;;5.46;69.05
56894;BME280;43392;50.078;13.704;2023-12-28T07:40:58;97101.25;;;5.49;68.85
56894;BME280;43392;50.078;13.704;2023-12-28T07:43:25;97103.66;;;5.51;69.05
56894;BME280;43392;50.078;13.704;2023-12-28T07:45:51;97103.19;;;5.54;68.87
56894;BME280;43392;50.078;13.704;2023-12-28T07:48:18;97123.75;;;5.58;68.65
56894;BME280;43392;50.078;13.704;2023-12-28T07:50:46;97117.97;;;5.61;68.47
56894;BME280;43392;50.078;13.704;2023-12-28T07:53:14;97115.06;;;5.63;68.35
56894;BME280;43392;50.078;13.704;2023-12-28T07:55:41;97113.50;;;5.67;68.45
56894;BME280;43392;50.078;13.704;2023-12-28T07:58:07;97119.44;;;5.69;68.38
56894;BME280;43392;50.078;13.704;2023-12-28T08:00:34;97121.38;;;5.73;68.61
56894;BME280;43392;50.078;13.704;2023-12-28T08:03:00;97096.03;;;5.71;68.46
56894;BME280;43392;50.078;13.704;2023-12-28T08:05:27;97115.31;;;5.78;68.59
56894;BME280;43392;50.078;13.704;2023-12-28T08:07:56;97124.13;;;5.78;68.81
56894;BME280;43392;50.078;13.704;2023-12-28T08:10:22;97133.94;;;5.78;68.78
56894;BME280;43392;50.078;13.704;2023-12-28T08:12:49;97108.38;;;5.77;69.09
56894;BME280;43392;50.078;13.704;2023-12-28T08:15:15;97081.53;;;5.78;69.07
56894;BME280;43392;50.078;13.704;2023-12-28T08:17:42;97070.66;;;5.80;68.88
56894;BME280;43392;50.078;13.704;2023-12-28T08:20:09;97076.78;;;5.80;68.75
56894;BME280;43392;50.078;13.704;2023-12-28T08:22:35;97069.59;;;5.81;68.93
56894;BME280;43392;50.078;13.704;2023-12-28T08:25:04;97050.16;;;5.80;68.95
56894;BME280;43392;50.078;13.704;2023-12-28T08:27:31;97038.97;;;5.78;68.72
56894;BME280;43392;50.078;13.704;2023-12-28T08:29:58;97042.34;;;5.74;68.62
56894;BME280;43392;50.078;13.704;2023-12-28T08:32:25;97053.06;;;5.79;68.54
56894;BME280;43392;50.078;13.704;2023-12-28T08:34:51;97057.34;;;5.80;68.67
56894;BME280;43392;50.078;13.704;2023-12-28T08:37:18;97063.69;;;5.79;68.48
56894;BME280;43392;50.078;13.704;2023-12-28T08:39:44;97067.97;;;5.80;68.72
56894;BME280;43392;50.078;13.704;2023-12-28T08:42:12;97068.09;;;5.85;68.46
56894;BME280;43392;50.078;13.704;2023-12-28T08:44:39;97068.91;;;5.85;68.85
56894;BME280;43392;50.078;13.704;2023-12-28T08:47:06;97084.88;;;5.85;69.14
56894;BME280;43392;50.078;13.704;2023-12-28T08:49:32;97077.09;;;5.84;69.20
56894;BME280;43392;50.078;13.704;2023-12-28T08:51:59;97092.03;;;5.85;68.95
56894;BME280;43392;50.078;13.704;2023-12-28T08:54:26;97093.06;;;5.84;69.14
56894;BME280;43392;50.078;13.704;2023-12-28T08:56:52;97112.31;;;5.86;69.07
56894;BME280;43392;50.078;13.704;2023-12-28T08:59:20;97127.19;;;5.87;68.91
56894;BME280;43392;50.078;13.704;2023-12-28T09:01:47;97136.34;;;5.91;68.90
56894;BME280;43392;50.078;13.704;2023-12-28T09:04:13;97125.19;;;5.94;69.00
56894;BME280;43392;50.078;13.704;2023-12-28T09:06:40;97124.97;;;5.95;68.80
56894;BME280;43392;50.078;13.704;2023-12-28T09:09:07;97113.72;;;5.93;68.96
56894;BME280;43392;50.078;13.704;2023-12-28T09:11:34;97110.44;;;6.03;68.82
56894;BME280;43392;50.078;13.704;2023-12-28T09:14:01;97109.38;;;6.04;68.85
56894;BME280;43392;50.078;13.704;2023-12-28T09:16:29;97106.47;;;6.06;68.93
56894;BME280;43392;50.078;13.704;2023-12-28T09:18:55;97098.47;;;6.06;68.98
56894;BME280;43392;50.078;13.704;2023-12-28T09:21:22;97085.97;;;6.06;69.18
56894;BME280;43392;50.078;13.704;2023-12-28T09:23:49;97077.25;;;6.11;69.11
56894;BME280;43392;50.078;13.704;2023-12-28T09:26:15;97066.94;;;6.14;69.02
56894;BME280;43392;50.078;13.704;2023-12-28T09:28:43;97064.09;;;6.21;69.04
56894;BME280;43392;50.078;13.704;2023-12-28T09:31:10;97086.53;;;6.25;68.77
56894;BME280;43392;50.078;13.704;2023-12-28T09:33:38;97100.16;;;6.28;68.93
56894;BME280;43392;50.078;13.704;2023-12-28T09:36:06;97100.50;;;6.32;68.89
56894;BME280;43392;50.078;13.704;2023-12-28T09:38:33;97097.31;;;6.35;68.95
56894;BME280;43392;50.078;13.704;2023-12-28T09:41:13;97083.22;;;6.34;68.97
56894;BME280;43392;50.078;13.704;2023-12-28T09:43:46;97093.69;;;6.41;68.84
56894;BME280;43392;50.078;13.704;2023-12-28T09:46:16;97100.13;;;6.45;68.93
56894;BME280;43392;50.078;13.704;2023-12-28T09:48:44;97100.47;;;6.48;68.54
56894;BME280;43392;50.078;13.704;2023-12-28T09:51:11;97094.66;;;6.51;68.67
56894;BME280;43392;50.078;13.704;2023-12-28T09:53:37;97092.53;;;6.53;68.85
56894;BME280;43392;50.078;13.704;2023-12-28T09:56:05;97092.03;;;6.56;68.77
56894;BME280;43392;50.078;13.704;2023-12-28T09:58:33;97092.59;;;6.58;68.67
56894;BME280;43392;50.078;13.704;2023-12-28T10:01:02;97090.16;;;6.57;68.56
56894;BME280;43392;50.078;13.704;2023-12-28T10:03:29;97098.50;;;6.60;68.56
56894;BME280;43392;50.078;13.704;2023-12-28T10:05:57;97096.63;;;6.61;68.37
56894;BME280;43392;50.078;13.704;2023-12-28T10:08:24;97096.38;;;6.62;68.37
56894;BME280;43392;50.078;13.704;2023-12-28T10:10:51;97094.53;;;6.63;68.35
56894;BME280;43392;50.078;13.704;2023-12-28T10:13:19;97092.69;;;6.63;68.34
56894;BME280;43392;50.078;13.704;2023-12-28T10:15:46;97096.13;;;6.64;68.41
56894;BME280;43392;50.078;13.704;2023-12-28T10:18:17;97089.75;;;6.65;68.39
56894;BME280;43392;50.078;13.704;2023-12-28T10:20:49;97092.16;;;6.66;68.14
56894;BME280;43392;50.078;13.704;2023-12-28T10:23:17;97084.72;;;6.68;68.22
56894;BME280;43392;50.078;13.704;2023-12-28T10:25:44;97106.63;;;6.71;68.16
56894;BME280;43392;50.078;13.704;2023-12-28T10:28:11;97101.84;;;6.73;68.06
56894;BME280;43392;50.078;13.704;2023-12-28T10:30:38;97099.47;;;6.76;68.14
56894;BME280;43392;50.078;13.704;2023-12-28T10:33:05;97098.69;;;6.76;67.83
56894;BME280;43392;50.078;13.704;2023-12-28T10:35:32;97108.34;;;6.82;67.57
56894;BME280;43392;50.078;13.704;2023-12-28T10:38:00;97112.13;;;6.86;67.28
56894;BME280;43392;50.078;13.704;2023-12-28T10:40:29;97111.63;;;6.89;67.50
56894;BME280;43392;50.078;13.704;2023-12-28T10:42:58;97105.25;;;6.90;67.29
56894;BME280;43392;50.078;13.704;2023-12-28T10:45:28;97106.38;;;6.94;67.30
56894;BME280;43392;50.078;13.704;2023-12-28T10:48:04;97097.88;;;6.97;66.96
56894;BME280;43392;50.078;13.704;2023-12-28T10:50:38;97091.47;;;6.98;66.81
56894;BME280;43392;50.078;13.704;2023-12-28T10:53:14;97088.63;;;7.04;66.64
56894;BME280;43392;50.078;13.704;2023-12-28T10:55:52;97081.19;;;7.06;66.62
56894;BME280;43392;50.078;13.704;2023-12-28T10:58:30;97079.88;;;7.09;66.45
56894;BME280;43392;50.078;13.704;2023-12-28T11:01:04;97060.97;;;7.10;66.54
56894;BME280;43392;50.078;13.704;2023-12-28T11:03:37;97066.06;;;7.12;66.80
56894;BME280;43392;50.078;13.704;2023-12-28T11:06:05;97062.09;;;7.14;66.31
56894;BME280;43392;50.078;13.704;2023-12-28T11:08:34;97062.38;;;7.18;66.44
56894;BME280;43392;50.078;13.704;2023-12-28T11:11:03;97072.56;;;7.21;66.13
56894;BME280;43392;50.078;13.704;2023-12-28T11:13:32;97065.38;;;7.21;65.76
56894;BME280;43392;50.078;13.704;2023-12-28T11:15:59;97070.75;;;7.26;65.69
56894;BME280;43392;50.078;13.704;2023-12-28T11:18:26;97058.78;;;7.29;65.60
56894;BME280;43392;50.078;13.704;2023-12-28T11:20:55;97054.00;;;7.31;65.80
56894;BME280;43392;50.078;13.704;2023-12-28T11:23:22;97056.94;;;7.34;65.79
56894;BME280;43392;50.078;13.704;2023-12-28T11:25:50;97055.91;;;7.35;65.78
56894;BME280;43392;50.078;13.704;2023-12-28T11:28:18;97058.28;;;7.37;65.82
56894;BME280;43392;50.078;13.704;2023-12-28T11:30:46;97057.25;;;7.38;66.02
56894;BME280;43392;50.078;13.704;2023-12-28T11:33:13;97061.50;;;7.39;65.87
56894;BME280;43392;50.078;13.704;2023-12-28T11:35:40;97052.72;;;7.39;65.51
56894;BME280;43392;50.078;13.704;2023-12-28T11:38:08;97052.75;;;7.44;65.48
56894;BME280;43392;50.078;13.704;2023-12-28T11:40:42;97054.91;;;7.47;65.37
56894;BME280;43392;50.078;13.704;2023-12-28T11:43:19;97057.59;;;7.47;65.69
56894;BME280;43392;50.078;13.704;2023-12-28T11:45:51;97044.25;;;7.47;65.58
56894;BME280;43392;50.078;13.704;2023-12-28T11:48:25;97045.91;;;7.53;65.72
56894;BME280;43392;50.078;13.704;2023-12-28T11:50:55;97057.94;;;7.55;65.97
56894;BME280;43392;50.078;13.704;2023-12-28T11:53:23;97043.53;;;7.56;65.89
56894;BME280;43392;50.078;13.704;2023-12-28T11:55:49;97050.22;;;7.59;66.14
56894;BME280;43392;50.078;13.704;2023-12-28T11:58:16;97042.22;;;7.59;65.98
56894;BME280;43392;50.078;13.704;2023-12-28T12:00:45;97046.25;;;7.61;66.10
56894;BME280;43392;50.078;13.704;2023-12-28T12:03:11;97033.16;;;7.60;66.25
56894;BME280;43392;50.078;13.704;2023-12-28T12:05:39;97031.59;;;7.64;66.29
56894;BME280;43392;50.078;13.704;2023-12-28T12:08:06;97032.13;;;7.66;66.39
56894;BME280;43392;50.078;13.704;2023-12-28T12:10:35;97027.59;;;7.66;66.40
56894;BME280;43392;50.078;13.704;2023-12-28T12:13:02;97013.22;;;7.67;66.54
56894;BME280;43392;50.078;13.704;2023-12-28T12:15:29;97010.00;;;7.65;66.55
56894;BME280;43392;50.078;13.704;2023-12-28T12:17:58;97008.16;;;7.71;66.99
56894;BME280;43392;50.078;13.704;2023-12-28T12:20:26;97010.59;;;7.72;66.98
56894;BME280;43392;50.078;13.704;2023-12-28T12:22:57;96996.16;;;7.73;66.90
56894;BME280;43392;50.078;13.704;2023-12-28T12:25:24;97003.94;;;7.75;67.35
56894;BME280;43392;50.078;13.704;2023-12-28T12:27:50;97008.19;;;7.76;67.43
56894;BME280;43392;50.078;13.704;2023-12-28T12:30:18;96998.06;;;7.78;67.45
56894;BME280;43392;50.078;13.704;2023-12-28T12:32:44;96998.63;;;7.80;67.85
56894;BME280;43392;50.078;13.704;2023-12-28T12:35:13;96985.28;;;7.80;67.90
56894;BME280;43392;50.078;13.704;2023-12-28T12:37:40;96991.41;;;7.80;68.23
56894;BME280;43392;50.078;13.704;2023-12-28T12:40:08;96998.91;;;7.83;68.46
56894;BME280;43392;50.078;13.704;2023-12-28T12:42:35;96999.44;;;7.85;68.48
56894;BME280;43392;50.078;13.704;2023-12-28T12:45:02;97005.34;;;7.87;68.86
56894;BME280;43392;50.078;13.704;2023-12-28T12:47:32;97009.63;;;7.88;68.94
56894;BME280;43392;50.078;13.704;2023-12-28T12:49:59;97010.16;;;7.90;69.14
56894;BME280;43392;50.078;13.704;2023-12-28T12:52:27;97020.03;;;7.90;69.44
56894;BME280;43392;50.078;13.704;2023-12-28T12:54:55;97024.88;;;7.93;69.44
56894;BME280;43392;50.078;13.704;2023-12-28T12:57:23;97017.41;;;7.95;69.96
56894;BME280;43392;50.078;13.704;2023-12-28T12:59:51;97015.53;;;7.95;70.24
56894;BME280;43392;50.078;13.704;2023-12-28T13:02:17;97002.75;;;7.97;69.95